createdAt,value
2022-08-23T00:05:34.393Z,21.03
2022-08-23T00:08:02.617Z,20.83
2022-08-23T00:10:30.673Z,20.76
2022-08-23T00:12:58.887Z,20.66
2022-08-23T00:15:27.067Z,20.51
2022-08-23T00:17:55.275Z,20.42
2022-08-23T00:37:10.177Z,19.70
2022-08-23T00:39:38.758Z,19.56
2022-08-23T00:42:25.393Z,19.45
2022-08-23T00:45:11.254Z,19.30
2022-08-23T00:47:43.239Z,19.20
2022-08-23T00:50:24.314Z,19.07
2022-08-23T00:53:03.332Z,18.96
2022-08-23T00:55:32.129Z,18.89
2022-08-23T00:58:00.751Z,18.86
2022-08-23T01:00:29.768Z,18.82
2022-08-23T01:02:58.065Z,18.78
2022-08-23T01:05:32.223Z,18.79
2022-08-23T01:08:02.059Z,18.72
2022-08-23T01:10:48.952Z,18.63
2022-08-23T01:13:21.362Z,18.54
2022-08-23T01:15:52.870Z,18.50
2022-08-23T01:18:25.450Z,18.42
2022-08-23T01:21:01.122Z,18.34
2022-08-23T01:23:37.662Z,18.34
2022-08-23T01:26:07.080Z,18.30
2022-08-23T01:28:40.866Z,18.20
2022-08-23T01:31:15.622Z,18.10
2022-08-23T01:33:47.280Z,17.98
2022-08-23T01:36:17.210Z,17.92
2022-08-23T01:38:47.809Z,17.92
2022-08-23T01:41:15.775Z,17.92
2022-08-23T01:43:43.896Z,17.94
2022-08-23T01:46:15.009Z,17.89
2022-08-23T01:48:44.542Z,17.91
2022-08-23T01:51:13.898Z,17.91
2022-08-23T01:53:42.028Z,17.89
2022-08-23T01:56:11.424Z,17.90
2022-08-23T01:58:40.977Z,17.94
2022-08-23T02:01:10.327Z,17.91
2022-08-23T02:03:38.839Z,18.08
2022-08-23T02:06:07.461Z,18.00
2022-08-23T02:08:53.610Z,18.01
2022-08-23T02:11:29.835Z,18.17
2022-08-23T02:14:00.929Z,18.12
2022-08-23T02:16:37.884Z,18.09
2022-08-23T02:19:09.318Z,18.17
2022-08-23T02:21:39.003Z,18.17
2022-08-23T02:24:09.474Z,18.10
2022-08-23T02:26:40.732Z,18.21
2022-08-23T02:29:15.818Z,18.32
2022-08-23T02:31:45.799Z,18.15
2022-08-23T02:34:15.809Z,18.00
2022-08-23T02:36:46.296Z,17.80
2022-08-23T02:39:18.123Z,17.63
2022-08-23T02:41:48.106Z,17.49
2022-08-23T02:44:16.349Z,17.34
2022-08-23T02:46:45.372Z,17.27
2022-08-23T02:49:15.032Z,17.32
2022-08-23T02:51:43.762Z,17.36
2022-08-23T02:54:11.810Z,17.26
2022-08-23T02:56:40.501Z,17.10
2022-08-23T02:59:10.777Z,16.96
2022-08-23T03:01:40.661Z,16.82
2022-08-23T03:04:31.341Z,16.68
2022-08-23T03:06:59.489Z,16.57
2022-08-23T03:09:28.268Z,16.46
2022-08-23T03:11:56.515Z,16.38
2022-08-23T03:14:27.497Z,16.28
2022-08-23T03:16:58.324Z,16.20
2022-08-23T03:19:26.821Z,16.22
2022-08-23T03:21:54.930Z,16.20
2022-08-23T03:24:23.731Z,16.13
2022-08-23T03:26:52.061Z,16.10
2022-08-23T03:29:20.502Z,16.07
2022-08-23T03:32:04.222Z,16.02
2022-08-23T03:34:36.372Z,15.95
2022-08-23T03:37:06.200Z,15.88
2022-08-23T03:39:34.902Z,15.82
2022-08-23T03:42:03.396Z,15.75
2022-08-23T03:44:34.098Z,15.69
2022-08-23T03:47:05.877Z,15.65
2022-08-23T03:49:34.186Z,15.59
2022-08-23T03:52:02.435Z,15.57
2022-08-23T03:54:33.046Z,15.55
2022-08-23T03:57:03.830Z,15.48
2022-08-23T03:59:36.938Z,15.47
2022-08-23T04:02:10.938Z,15.51
2022-08-23T04:04:39.886Z,15.54
2022-08-23T04:07:32.126Z,15.48
2022-08-23T04:10:00.155Z,15.45
2022-08-23T04:12:33.973Z,15.49
2022-08-23T04:15:02.787Z,15.51
2022-08-23T04:17:34.582Z,15.48
2022-08-23T04:20:02.826Z,15.46
2022-08-23T04:22:33.455Z,15.41
2022-08-23T04:25:02.925Z,15.40
2022-08-23T04:27:31.736Z,15.35
2022-08-23T04:29:59.854Z,15.40
2022-08-23T04:32:30.067Z,15.53
2022-08-23T04:35:04.516Z,15.58
2022-08-23T04:37:35.247Z,15.56
2022-08-23T04:40:22.522Z,15.54
2022-08-23T04:42:52.146Z,15.51
2022-08-23T04:45:20.295Z,15.48
2022-08-23T04:47:51.657Z,15.48
2022-08-23T04:50:21.670Z,15.48
2022-08-23T04:53:29.157Z,15.48
2022-08-23T04:56:11.699Z,15.51
2022-08-23T04:58:41.143Z,15.53
2022-08-23T05:01:11.609Z,15.54
2022-08-23T05:03:40.973Z,15.62
2022-08-23T05:06:10.502Z,15.79
2022-08-23T05:08:41.329Z,16.16
2022-08-23T05:11:11.464Z,16.27
2022-08-23T05:13:41.604Z,16.24
2022-08-23T05:16:11.857Z,16.19
2022-08-23T05:18:45.683Z,16.21
2022-08-23T05:21:17.539Z,16.23
2022-08-23T05:23:51.042Z,16.34
2022-08-23T05:26:24.205Z,16.67
2022-08-23T05:28:52.408Z,16.65
2022-08-23T05:31:27.501Z,16.70
2022-08-23T05:33:59.729Z,16.72
2022-08-23T05:36:35.995Z,16.72
2022-08-23T05:39:05.176Z,16.75
2022-08-23T05:41:38.671Z,16.82
2022-08-23T05:44:10.336Z,16.90
2022-08-23T05:46:43.502Z,16.98
2022-08-23T05:49:22.124Z,17.07
2022-08-23T05:51:53.595Z,17.14
2022-08-23T05:54:25.412Z,17.23
2022-08-23T05:57:13.475Z,17.38
2022-08-23T05:59:41.837Z,17.53
2022-08-23T06:02:10.922Z,17.68
2022-08-23T06:04:39.028Z,17.84
2022-08-23T06:07:09.817Z,18.03
2022-08-23T06:09:38.975Z,18.20
2022-08-23T06:12:07.332Z,18.44
2022-08-23T06:14:35.458Z,18.68
2022-08-23T06:17:03.936Z,18.97
2022-08-23T06:19:32.092Z,19.23
2022-08-23T06:22:13.753Z,19.45
2022-08-23T06:24:43.474Z,19.66
2022-08-23T06:27:17.038Z,19.98
2022-08-23T06:29:45.987Z,20.37
2022-08-23T06:32:32.250Z,20.73
2022-08-23T06:35:37.700Z,20.98
2022-08-23T06:38:23.270Z,21.19
2022-08-23T06:41:06.629Z,21.54
2022-08-23T06:44:08.419Z,21.73
2022-08-23T06:46:57.301Z,21.92
2022-08-23T06:49:27.636Z,22.24
2022-08-23T06:51:57.840Z,22.44
2022-08-23T06:54:59.601Z,22.67
2022-08-23T06:57:54.477Z,23.12
2022-08-23T07:00:43.504Z,23.31
2022-08-23T07:03:18.891Z,23.35
2022-08-23T07:06:12.630Z,23.47
2022-08-23T07:08:41.979Z,23.46
2022-08-23T07:11:12.329Z,23.21
2022-08-23T07:13:41.388Z,23.26
2022-08-23T07:16:09.412Z,23.50
2022-08-23T07:18:37.679Z,23.68
2022-08-23T07:21:07.623Z,23.73
2022-08-23T07:23:38.310Z,23.97
2022-08-23T07:26:11.164Z,24.10
2022-08-23T07:28:42.156Z,24.32
2022-08-23T07:31:14.737Z,24.70
2022-08-23T07:33:45.328Z,25.03
2022-08-23T07:36:20.455Z,25.08
2022-08-23T07:38:51.521Z,25.45
2022-08-23T07:41:21.420Z,25.71
2022-08-23T07:43:51.280Z,26.02
2022-08-23T07:46:20.397Z,25.67
2022-08-23T07:48:54.449Z,25.68
2022-08-23T07:51:32.155Z,25.79
2022-08-23T07:54:02.472Z,26.26
2022-08-23T07:56:30.693Z,26.21
2022-08-23T07:59:15.759Z,26.61
2022-08-23T08:01:56.812Z,26.68
2022-08-23T08:04:25.806Z,26.71
2022-08-23T08:07:17.225Z,26.95
2022-08-23T08:09:45.541Z,27.35
2022-08-23T08:12:15.868Z,27.52
2022-08-23T08:14:48.086Z,27.95
2022-08-23T08:17:18.366Z,28.16
2022-08-23T08:20:06.970Z,27.95
2022-08-23T08:22:49.941Z,27.39
2022-08-23T08:25:48.027Z,28.60
2022-08-23T08:28:19.706Z,28.79
2022-08-23T08:30:49.262Z,29.26
2022-08-23T08:33:17.336Z,29.21
2022-08-23T08:35:59.196Z,28.52
2022-08-23T08:38:29.084Z,28.96
2022-08-23T08:41:10.456Z,29.29
2022-08-23T08:43:56.763Z,28.83
2022-08-23T08:46:38.349Z,29.02
2022-08-23T08:49:09.333Z,29.91
2022-08-23T08:51:45.408Z,29.71
2022-08-23T08:54:18.197Z,29.10
2022-08-23T08:56:54.619Z,28.97
2022-08-23T08:59:43.765Z,29.00
2022-08-23T09:02:31.897Z,29.44
2022-08-23T09:05:03.943Z,29.97
2022-08-23T09:07:45.289Z,30.34
2022-08-23T09:10:48.065Z,30.38
2022-08-23T09:13:36.775Z,30.73
2022-08-23T09:16:18.540Z,30.79
2022-08-23T09:18:49.740Z,30.36
2022-08-23T09:21:19.026Z,31.18
2022-08-23T09:24:00.665Z,30.76
2022-08-23T09:26:43.853Z,31.12
2022-08-23T09:29:22.340Z,31.55
2022-08-23T09:31:54.976Z,32.11
2022-08-23T09:34:44.267Z,32.08
2022-08-23T09:37:19.755Z,32.23
2022-08-23T09:39:51.372Z,32.01
2022-08-23T09:42:31.428Z,32.17
2022-08-23T09:45:01.022Z,32.28
2022-08-23T09:47:34.547Z,31.30
2022-08-23T09:50:24.309Z,31.36
2022-08-23T09:52:56.957Z,31.43
2022-08-23T09:55:32.726Z,32.30
2022-08-23T09:58:03.012Z,32.52
2022-08-23T10:00:34.917Z,33.19
2022-08-23T10:03:23.479Z,32.40
2022-08-23T10:05:57.310Z,32.81
2022-08-23T10:08:29.501Z,33.36
2022-08-23T10:11:06.869Z,33.42
2022-08-23T10:13:39.724Z,33.20
2022-08-23T10:16:18.619Z,33.17
2022-08-23T10:19:08.090Z,33.74
2022-08-23T10:21:43.107Z,33.62
2022-08-23T10:24:24.703Z,34.03
2022-08-23T10:27:28.093Z,34.24
2022-08-23T10:30:02.963Z,34.47
2022-08-23T10:32:46.001Z,34.01
2022-08-23T10:35:29.223Z,33.79
2022-08-23T10:38:29.758Z,33.47
2022-08-23T10:41:08.379Z,34.31
2022-08-23T10:43:43.905Z,34.51
2022-08-23T10:46:12.924Z,34.35
2022-08-23T10:48:48.832Z,34.59
2022-08-23T10:51:23.302Z,34.79
2022-08-23T10:54:07.889Z,34.54
2022-08-23T10:56:44.316Z,34.82
2022-08-23T10:59:23.891Z,34.32
2022-08-23T11:01:58.926Z,35.05
2022-08-23T11:04:35.146Z,35.08
2022-08-23T11:07:20.534Z,35.01
2022-08-23T11:09:58.162Z,35.13
2022-08-23T11:12:33.877Z,34.97
2022-08-23T11:15:33.017Z,35.24
2022-08-23T11:18:05.054Z,35.65
2022-08-23T11:21:05.773Z,35.60
2022-08-23T11:23:50.353Z,35.50
2022-08-23T11:27:07.599Z,35.87
2022-08-23T11:29:45.278Z,35.65
2022-08-23T11:32:46.379Z,35.83
2022-08-23T11:35:43.234Z,35.99
2022-08-23T11:38:13.751Z,36.60
2022-08-23T11:41:13.459Z,37.07
2022-08-23T11:43:44.106Z,37.87
2022-08-23T11:46:46.291Z,37.71
2022-08-23T11:49:49.705Z,36.35
2022-08-23T11:52:32.403Z,36.99
2022-08-23T11:55:20.618Z,38.09
2022-08-23T11:58:05.836Z,37.20
2022-08-23T12:00:55.120Z,36.70
2022-08-23T12:03:33.307Z,37.36
2022-08-23T12:06:12.813Z,36.88
2022-08-23T12:08:55.287Z,36.20
2022-08-23T12:11:26.971Z,35.63
2022-08-23T12:13:59.451Z,35.98
2022-08-23T12:16:36.295Z,35.63
2022-08-23T12:19:13.713Z,35.25
2022-08-23T12:21:52.080Z,35.59
2022-08-23T12:24:26.978Z,34.92
2022-08-23T12:27:12.782Z,35.27
2022-08-23T12:29:53.745Z,35.81
2022-08-23T12:32:33.966Z,35.70
2022-08-23T12:35:21.735Z,35.13
2022-08-23T12:37:57.742Z,35.38
2022-08-23T12:40:32.225Z,35.72
2022-08-23T12:43:06.747Z,36.08
2022-08-23T12:45:40.892Z,35.50
2022-08-23T12:48:12.600Z,35.10
2022-08-23T12:50:45.098Z,35.44
2022-08-23T12:53:15.482Z,35.71
2022-08-23T12:55:46.877Z,35.48
2022-08-23T12:58:16.307Z,34.80
2022-08-23T13:00:54.419Z,35.16
2022-08-23T13:03:27.167Z,35.06
2022-08-23T13:06:02.222Z,35.09
2022-08-23T13:08:43.482Z,35.26
2022-08-23T13:11:14.373Z,35.30
2022-08-23T13:13:44.406Z,35.93
2022-08-23T13:16:28.009Z,35.61
2022-08-23T13:19:11.007Z,35.95
2022-08-23T13:21:40.393Z,35.16
2022-08-23T13:24:37.771Z,35.82
2022-08-23T13:27:20.602Z,36.09
2022-08-23T13:29:53.688Z,36.48
2022-08-23T13:32:29.215Z,37.19
2022-08-23T13:35:28.925Z,36.87
2022-08-23T13:38:02.255Z,37.34
2022-08-23T13:40:33.251Z,36.98
2022-08-23T13:43:04.322Z,35.86
2022-08-23T13:45:35.380Z,36.06
2022-08-23T13:48:10.211Z,36.22
2022-08-23T13:50:39.920Z,36.38
2022-08-23T13:53:17.491Z,36.86
2022-08-23T13:55:49.873Z,37.16
2022-08-23T13:58:27.777Z,37.36
2022-08-23T14:00:58.834Z,37.70
2022-08-23T14:03:32.044Z,38.27
2022-08-23T14:06:00.107Z,38.14
2022-08-23T14:08:29.537Z,37.18
2022-08-23T14:10:57.572Z,37.06
2022-08-23T14:13:30.015Z,37.32
2022-08-23T14:21:39.357Z,37.61
2022-08-23T14:24:08.885Z,37.35
2022-08-23T14:26:36.954Z,37.77
2022-08-23T14:29:05.802Z,36.71
2022-08-23T14:31:33.944Z,36.73
2022-08-23T14:34:02.477Z,37.17
2022-08-23T14:36:30.746Z,36.62
2022-08-23T14:38:59.043Z,36.50
2022-08-23T14:41:29.280Z,36.83
2022-08-23T14:43:57.549Z,36.92
2022-08-23T14:46:25.825Z,36.75
2022-08-23T14:48:53.985Z,36.47
2022-08-23T14:51:27.540Z,36.93
2022-08-23T14:53:57.261Z,36.48
2022-08-23T14:56:25.967Z,36.68
2022-08-23T14:58:55.446Z,36.53
2022-08-23T15:01:24.253Z,36.17
2022-08-23T15:03:52.783Z,35.97
2022-08-23T15:06:21.847Z,35.84
2022-08-23T15:08:50.289Z,35.84
2022-08-23T15:14:08.112Z,35.68
2022-08-23T15:16:36.394Z,35.72
2022-08-23T15:19:05.217Z,35.53
2022-08-23T15:21:33.749Z,35.39
2022-08-23T15:24:02.609Z,34.89
2022-08-23T15:26:32.394Z,34.54
2022-08-23T15:29:00.702Z,34.90
2022-08-23T15:31:30.450Z,34.03
2022-08-23T15:33:59.560Z,34.31
2022-08-23T15:36:27.985Z,34.54
2022-08-23T15:38:56.090Z,34.17
2022-08-23T15:41:24.521Z,33.93
2022-08-23T15:43:52.514Z,34.07
2022-08-23T15:46:23.543Z,34.26
2022-08-23T15:48:58.109Z,34.26
2022-08-23T15:51:26.879Z,33.79
2022-08-23T15:53:55.255Z,33.99
2022-08-23T15:56:31.036Z,33.96
2022-08-23T15:58:59.148Z,33.53
2022-08-23T16:01:30.129Z,33.49
2022-08-23T16:04:02.125Z,33.32
2022-08-23T16:06:35.808Z,33.51
2022-08-23T16:09:06.419Z,33.38
2022-08-23T16:11:34.501Z,33.58
2022-08-23T16:14:02.567Z,33.23
2022-08-23T16:16:32.732Z,32.89
2022-08-23T16:19:02.219Z,32.90
2022-08-23T16:21:31.884Z,32.78
2022-08-23T16:24:00.655Z,33.04
2022-08-23T16:26:35.289Z,32.89
2022-08-23T16:29:07.018Z,32.56
2022-08-23T16:31:39.370Z,32.28
2022-08-23T16:34:11.785Z,32.33
2022-08-23T16:36:42.368Z,32.46
2022-08-23T16:39:12.603Z,32.54
2022-08-23T16:41:40.556Z,32.65
2022-08-23T16:44:08.945Z,32.59
2022-08-23T16:46:37.317Z,32.20
2022-08-23T16:49:05.391Z,32.03
2022-08-23T16:51:34.677Z,32.23
2022-08-23T16:54:03.460Z,32.26
2022-08-23T16:56:32.339Z,32.23
2022-08-23T16:59:00.412Z,32.07
2022-08-23T17:01:29.569Z,32.03
2022-08-23T17:03:57.769Z,31.98
2022-08-23T17:06:26.393Z,31.81
2022-08-23T17:08:55.741Z,31.74
2022-08-23T17:11:23.773Z,31.54
2022-08-23T17:13:58.248Z,31.31
2022-08-23T17:16:33.313Z,31.07
2022-08-23T17:19:01.460Z,30.90
2022-08-23T17:21:29.740Z,30.88
2022-08-23T17:23:59.896Z,30.74
2022-08-23T17:26:27.958Z,30.39
2022-08-23T17:28:56.437Z,30.24
2022-08-23T17:31:24.492Z,30.09
2022-08-23T17:33:52.621Z,29.85
2022-08-23T17:36:29.645Z,29.71
2022-08-23T17:38:59.295Z,29.40
2022-08-23T17:41:28.318Z,29.36
2022-08-23T17:43:57.414Z,29.47
2022-08-23T17:46:25.583Z,29.05
2022-08-23T17:48:53.892Z,28.83
2022-08-23T17:51:21.991Z,28.59
2022-08-23T17:53:50.131Z,28.35
2022-08-23T17:56:19.547Z,28.06
2022-08-23T17:58:47.795Z,27.91
2022-08-23T18:01:15.976Z,27.68
2022-08-23T18:03:44.479Z,27.49
2022-08-23T18:06:16.664Z,27.23
2022-08-23T18:08:45.681Z,26.97
2022-08-23T18:11:14.153Z,26.75
2022-08-23T18:13:43.655Z,26.53
2022-08-23T18:16:13.860Z,26.35
2022-08-23T18:18:42.507Z,26.15
2022-08-23T18:21:12.949Z,25.96
2022-08-23T18:23:41.155Z,25.76
2022-08-23T18:26:32.556Z,25.58
2022-08-23T18:29:02.802Z,25.37
2022-08-23T18:31:31.216Z,25.17
2022-08-23T18:34:00.623Z,25.02
2022-08-23T18:36:29.888Z,24.86
2022-08-23T18:38:58.550Z,24.71
2022-08-23T18:41:26.660Z,24.57
2022-08-23T18:43:54.992Z,24.53
2022-08-23T18:46:24.347Z,24.51
2022-08-23T18:48:53.376Z,24.41
2022-08-23T18:51:22.114Z,24.33
2022-08-23T18:53:50.372Z,24.39
2022-08-23T18:56:18.447Z,24.50
2022-08-23T18:58:47.531Z,24.45
2022-08-23T19:01:28.381Z,24.51
2022-08-23T19:03:58.351Z,24.42
2022-08-23T19:06:26.857Z,24.51
2022-08-23T19:08:55.608Z,24.49
2022-08-23T19:11:24.855Z,24.70
2022-08-23T19:13:52.888Z,24.51
2022-08-23T19:16:22.267Z,24.37
2022-08-23T19:18:51.758Z,24.30
2022-08-23T19:21:21.563Z,24.30
2022-08-23T19:23:51.742Z,24.24
2022-08-23T19:26:22.010Z,24.21
2022-08-23T19:28:50.450Z,24.16
2022-08-23T19:31:18.526Z,24.01
2022-08-23T19:33:46.597Z,24.01
2022-08-23T19:36:36.022Z,24.03
2022-08-23T19:39:05.268Z,24.02
2022-08-23T19:41:33.779Z,24.00
2022-08-23T19:44:02.493Z,23.93
2022-08-23T19:46:31.155Z,23.93
2022-08-23T19:48:59.262Z,23.85
2022-08-23T19:51:28.703Z,23.77
2022-08-23T19:54:10.844Z,23.69
2022-08-23T19:56:42.294Z,23.55
2022-08-23T19:59:14.180Z,23.41
2022-08-23T20:01:42.547Z,23.41
2022-08-23T20:04:10.615Z,23.23
2022-08-23T20:06:40.038Z,23.18
2022-08-23T20:09:09.297Z,23.07
2022-08-23T20:11:37.449Z,23.00
2022-08-23T20:14:06.692Z,22.98
2022-08-23T20:16:36.158Z,22.92
2022-08-23T20:19:07.151Z,23.00
2022-08-23T20:21:35.203Z,22.82
2022-08-23T20:24:04.550Z,22.73
2022-08-23T20:26:33.676Z,22.74
2022-08-23T20:29:02.519Z,22.75
2022-08-23T20:31:33.444Z,22.69
2022-08-23T20:34:01.685Z,22.66
2022-08-23T20:36:29.815Z,22.61
2022-08-23T20:39:00.017Z,22.59
2022-08-23T20:41:32.634Z,22.61
2022-08-23T20:44:02.260Z,22.67
2022-08-23T20:46:30.924Z,22.53
2022-08-23T20:48:59.002Z,22.57
2022-08-23T20:51:28.420Z,22.46
2022-08-23T20:53:56.952Z,22.50
2022-08-23T20:56:28.025Z,22.42
2022-08-23T20:58:57.920Z,22.31
2022-08-23T21:01:26.550Z,22.15
2022-08-23T21:03:54.779Z,22.16
2022-08-23T21:06:25.617Z,22.12
2022-08-23T21:08:55.111Z,21.97
2022-08-23T21:11:25.968Z,21.86
2022-08-23T21:13:54.040Z,21.84
2022-08-23T21:16:24.354Z,21.85
2022-08-23T21:18:55.603Z,21.83
2022-08-23T21:21:24.324Z,21.83
2022-08-23T21:23:52.514Z,21.75
2022-08-23T21:26:22.158Z,21.70
2022-08-23T21:28:50.576Z,21.66
2022-08-23T21:31:21.882Z,21.57
2022-08-23T21:33:52.180Z,21.54
2022-08-23T21:36:22.239Z,21.50
2022-08-23T21:38:50.806Z,21.39
2022-08-23T21:41:30.995Z,21.54
2022-08-23T21:43:59.085Z,21.52
2022-08-23T21:46:27.194Z,21.50
2022-08-23T21:48:56.806Z,21.55
2022-08-23T21:51:24.703Z,21.44
2022-08-23T21:53:52.754Z,21.41
2022-08-23T21:56:21.389Z,21.43
2022-08-23T21:58:50.708Z,21.34
2022-08-23T22:01:19.220Z,21.34
2022-08-23T22:03:47.295Z,21.34
2022-08-23T22:06:18.735Z,21.31
2022-08-23T22:08:47.101Z,21.16
2022-08-23T22:11:16.098Z,21.07
2022-08-23T22:13:44.593Z,20.93
2022-08-23T22:16:12.922Z,20.80
2022-08-23T22:18:41.140Z,20.68
2022-08-23T22:21:09.945Z,20.54
2022-08-23T22:23:43.194Z,20.42
2022-08-23T22:26:13.589Z,20.29
2022-08-23T22:28:44.457Z,20.21
2022-08-23T22:31:16.084Z,20.19
2022-08-23T22:33:45.000Z,20.10
2022-08-23T22:36:16.498Z,20.03
2022-08-23T22:38:46.694Z,19.97
2022-08-23T22:41:17.462Z,19.95
2022-08-23T22:43:45.872Z,20.05
2022-08-23T22:46:14.076Z,19.99
2022-08-23T22:48:42.240Z,19.95
2022-08-23T22:51:13.748Z,19.95
2022-08-23T22:53:45.302Z,19.87
2022-08-23T22:56:17.425Z,19.78
2022-08-23T22:58:46.141Z,19.67
2022-08-23T23:01:20.338Z,19.64
2022-08-23T23:03:49.475Z,19.62
2022-08-23T23:06:19.604Z,19.57
2022-08-23T23:08:48.178Z,19.67
2022-08-23T23:11:18.483Z,19.56
2022-08-23T23:13:47.199Z,19.52
2022-08-23T23:16:17.765Z,19.44
2022-08-23T23:19:07.969Z,19.33
2022-08-23T23:21:36.704Z,19.25
2022-08-23T23:24:05.984Z,19.21
2022-08-23T23:26:35.324Z,19.18
2022-08-23T23:29:03.328Z,19.07
2022-08-23T23:31:31.448Z,19.03
2022-08-23T23:33:59.449Z,18.93
2022-08-23T23:36:27.690Z,18.89
2022-08-23T23:38:56.278Z,18.91
2022-08-23T23:41:24.585Z,18.88
2022-08-23T23:43:53.943Z,18.88
2022-08-23T23:46:23.873Z,19.23
2022-08-23T23:48:52.565Z,19.19
2022-08-23T23:51:23.039Z,19.23
2022-08-23T23:53:51.302Z,19.33
2022-08-23T23:56:22.282Z,19.24
2022-08-23T23:58:52.594Z,19.15
